Davenport, IA

10:08 AM CDT en Octubre 30, 2014 (GMT -0500)
Davenport Municipal | Change Station
CLOSE
Current Station
Aeropuerto
Location: Davenport,
Altura: 755 ft
Estaciones meteorológicas cercanas

Alt 755 ft 41.61 °N, 90.59 °W | Updated 1 hour ago

Muy nublado
Muy nublado
41 ° F
Sensación térmica 38 ° F
N
5
Viento Variable Viento desde SE

Hoy
Alta -- | Baja -- ° F
--% Posibilidad de precipitaciones
Ayer
Alta -- | Baja -- ° F
Precip. -- pul
7:31 AM 5:59 PM
Creciente, 44% visible
Presión 30.13 pul
Visibilidad 10.0 Millas
Nubes Muy nublado 11000 ft
Vientos helados 38 ° F
Punto de rocío 34 ° F
Humedad 76%
Precipitaciones 0.00 pul
Espesor de la nieve No disponible.
UV 0 de una escala de 12
Polen .20 de una escala de 12
Calidad del aire No disponible.
Flu Activity No disponible.
METAR KDVN 301352Z AUTO 14004KT 10SM BKN110 05/01 A3011 RMK AO2 SLP203 T00500011 TSNO

More Conditions Fewer Conditions

Presión 30.13 pul
Visibilidad 10.0 Millas
Nubes Muy nublado 11000 ft
Vientos helados 38 ° F
Punto de rocío 34 ° F
Humedad 76%
Precipitaciones 0.00 pul
Espesor de la nieve No disponible.
UV 0 de una escala de 12
Polen .20 de una escala de 12
Calidad del aire No disponible.
Flu Activity No disponible.
METAR KDVN 301352Z AUTO 14004KT 10SM BKN110 05/01 A3011 RMK AO2 SLP203 T00500011 TSNO

More Conditions Fewer Conditions

10-Day Weather Forecast

Almanac

Astronomía

Oct. 30, 2014 Salida Puesta
Hora real
Crepúsculo civil
Crepúsculo náutico
Crepúsculo astronómico
Luna
Horas de luz
Horas de luz
Tomorrow will be .
, % of the Moon is Illuminated

Extremos de hoy

Máximos del estado Bajos del estado

Community

WunderPhotos

Upload Photos

1,766,387 ¡fotos cargadas!

WunderBlogs® & News

Nearby

Calidad del aire

  Calidad del aire Índice AQ Contaminante
Not available.

Grosos de nieve

Estación Profundido Altura

Actividad de terremotos

Ciudad Distance Mag. Tiempo y dato
Magnitud mínima muestra es 2,5.

Temperaturas de aguas costeras

Lugar Temperatura

Estaciones meteorológicas cercanas